createdAt,value
2019-02-17T00:01:40.858Z,-1.70
2019-02-17T00:04:12.139Z,-1.60
2019-02-17T00:06:43.461Z,-1.60
2019-02-17T00:09:14.739Z,-1.60
2019-02-17T00:11:46.050Z,-1.60
2019-02-17T00:14:17.458Z,-1.60
2019-02-17T00:16:48.777Z,-1.60
2019-02-17T00:19:20.142Z,-1.60
2019-02-17T00:21:51.454Z,-1.50
2019-02-17T00:24:22.747Z,-1.60
2019-02-17T00:26:53.967Z,-1.60
2019-02-17T00:29:25.297Z,-1.60
2019-02-17T00:31:56.733Z,-1.60
2019-02-17T00:34:28.100Z,-1.60
2019-02-17T00:36:59.514Z,-1.60
2019-02-17T00:39:30.823Z,-1.80
2019-02-17T00:42:02.194Z,-1.90
2019-02-17T00:44:33.522Z,-1.70
2019-02-17T00:47:04.824Z,-1.80
2019-02-17T00:49:36.217Z,-1.80
2019-02-17T00:52:07.628Z,-1.70
2019-02-17T00:54:38.927Z,-1.70
2019-02-17T00:57:10.226Z,-1.80
2019-02-17T00:59:41.638Z,-1.90
2019-02-17T01:02:13.069Z,-1.90
2019-02-17T01:04:44.402Z,-1.80
2019-02-17T01:07:15.832Z,-1.80
2019-02-17T01:09:47.116Z,-1.80
2019-02-17T01:12:18.456Z,-1.80
2019-02-17T01:14:51.106Z,-1.80
2019-02-17T01:17:22.476Z,-1.90
2019-02-17T01:19:53.845Z,-1.90
2019-02-17T01:22:25.152Z,-1.90
2019-02-17T01:24:56.434Z,-1.90
2019-02-17T01:27:27.864Z,-1.90
2019-02-17T01:29:59.162Z,-2.10
2019-02-17T01:32:30.516Z,-2.10
2019-02-17T01:35:01.905Z,-2.00
2019-02-17T01:37:33.211Z,-2.00
2019-02-17T01:40:07.151Z,-2.00
2019-02-17T01:42:39.863Z,-1.90
2019-02-17T01:45:11.462Z,-1.90
2019-02-17T01:47:42.896Z,-1.90
2019-02-17T01:50:14.663Z,-1.90
2019-02-17T01:52:46.094Z,-1.90
2019-02-17T01:55:17.380Z,-1.90
2019-02-17T01:57:48.792Z,-2.00
2019-02-17T02:00:20.115Z,-2.30
2019-02-17T02:02:51.618Z,-2.30
2019-02-17T02:05:23.001Z,-2.30
2019-02-17T02:07:54.342Z,-2.20
2019-02-17T02:10:25.642Z,-2.20
2019-02-17T02:12:56.922Z,-2.20
2019-02-17T02:15:28.175Z,-2.20
2019-02-17T02:17:59.534Z,-2.20
2019-02-17T02:20:30.994Z,-2.30
2019-02-17T02:23:02.329Z,-2.20
2019-02-17T02:25:33.603Z,-2.20
2019-02-17T02:28:04.912Z,-2.20
2019-02-17T02:30:36.286Z,-2.10
2019-02-17T02:33:07.598Z,-2.10
2019-02-17T02:35:38.962Z,-2.00
2019-02-17T02:38:10.279Z,-2.00
2019-02-17T02:40:41.689Z,-2.00
2019-02-17T02:43:13.011Z,-2.10
2019-02-17T02:45:44.281Z,-2.20
2019-02-17T02:48:16.039Z,-2.50
2019-02-17T02:50:47.429Z,-2.50
2019-02-17T02:53:18.858Z,-2.50
2019-02-17T02:55:50.279Z,-2.50
2019-02-17T02:58:21.601Z,-2.40
2019-02-17T03:00:53.017Z,-2.30
2019-02-17T03:03:24.470Z,-2.30
2019-02-17T03:06:09.439Z,-2.20
2019-02-17T03:08:40.811Z,-2.20
2019-02-17T03:11:12.030Z,-2.30
2019-02-17T03:13:43.454Z,-2.20
2019-02-17T03:16:14.847Z,-2.20
2019-02-17T03:18:46.157Z,-2.30
2019-02-17T03:21:17.423Z,-2.50
2019-02-17T03:23:48.872Z,-2.50
2019-02-17T03:26:23.335Z,-2.40
2019-02-17T03:28:54.750Z,-2.50
2019-02-17T03:31:26.026Z,-2.40
2019-02-17T03:33:57.486Z,-2.40
2019-02-17T03:36:28.744Z,-2.30
2019-02-17T03:39:00.159Z,-2.30
2019-02-17T03:41:33.257Z,-2.30
2019-02-17T03:44:05.861Z,-2.30
2019-02-17T03:46:37.270Z,-2.30
2019-02-17T03:49:08.726Z,-2.30
2019-02-17T03:54:37.278Z,-2.30
2019-02-17T03:57:08.558Z,-2.30
2019-02-17T03:59:40.002Z,-2.40
2019-02-17T04:02:11.391Z,-2.60
2019-02-17T04:04:42.772Z,-2.60
2019-02-17T04:07:14.086Z,-2.50
2019-02-17T04:09:45.486Z,-2.60
2019-02-17T04:12:16.881Z,-2.60
2019-02-17T04:14:48.233Z,-2.50
2019-02-17T04:17:20.189Z,-2.60
2019-02-17T04:19:57.453Z,-2.60
2019-02-17T04:22:29.138Z,-2.70
2019-02-17T04:25:04.165Z,-2.60
2019-02-17T04:27:39.752Z,-2.80
2019-02-17T04:30:13.067Z,-2.80
2019-02-17T04:32:44.362Z,-2.70
2019-02-17T04:35:15.787Z,-2.70
2019-02-17T04:37:47.114Z,-2.60
2019-02-17T04:40:18.947Z,-2.60
2019-02-17T04:42:50.358Z,-2.60
2019-02-17T04:45:22.306Z,-2.60
2019-02-17T04:47:53.713Z,-2.60
2019-02-17T04:50:25.154Z,-2.60
2019-02-17T04:52:56.461Z,-2.60
2019-02-17T04:55:30.451Z,-2.60
2019-02-17T04:58:02.658Z,-2.60
2019-02-17T05:00:40.309Z,-2.80
2019-02-17T05:03:07.176Z,-2.90
2019-02-17T05:05:38.667Z,-3.00
2019-02-17T05:08:12.137Z,-2.90
2019-02-17T05:10:43.689Z,-2.90
2019-02-17T05:13:15.098Z,-2.90
2019-02-17T05:15:46.583Z,-2.90
2019-02-17T05:18:17.883Z,-2.90
2019-02-17T05:20:49.280Z,-2.90
2019-02-17T05:23:20.560Z,-3.00
2019-02-17T05:25:51.986Z,-3.00
2019-02-17T05:28:23.371Z,-3.00
2019-02-17T05:30:54.790Z,-3.00
2019-02-17T05:33:26.068Z,-3.00
2019-02-17T05:35:57.611Z,-2.90
2019-02-17T05:38:29.011Z,-2.90
2019-02-17T05:41:00.275Z,-2.90
2019-02-17T05:43:31.659Z,-2.90
2019-02-17T05:46:02.988Z,-2.80
2019-02-17T05:48:34.350Z,-2.90
2019-02-17T05:51:36.223Z,-2.90
2019-02-17T05:53:50.038Z,-2.80
2019-02-17T05:56:21.457Z,-2.80
2019-02-17T05:58:52.709Z,-2.70
2019-02-17T06:01:24.037Z,-2.70
2019-02-17T06:03:55.310Z,-2.80
2019-02-17T06:06:28.001Z,-2.90
2019-02-17T06:08:59.390Z,-2.90
2019-02-17T06:11:30.845Z,-3.00
2019-02-17T06:14:02.105Z,-3.00
2019-02-17T06:16:33.433Z,-3.00
2019-02-17T06:19:04.714Z,-3.00
2019-02-17T06:21:36.061Z,-2.90
2019-02-17T06:24:07.441Z,-2.80
2019-02-17T06:26:38.883Z,-2.90
2019-02-17T06:29:10.180Z,-2.80
2019-02-17T06:31:41.614Z,-2.70
2019-02-17T06:34:13.000Z,-2.70
2019-02-17T06:36:44.447Z,-2.70
2019-02-17T06:39:17.071Z,-2.50
2019-02-17T06:41:48.825Z,-2.70
2019-02-17T06:44:21.882Z,-2.60
2019-02-17T06:46:56.110Z,-2.60
2019-02-17T06:49:27.519Z,-2.50
2019-02-17T06:51:58.759Z,-2.40
2019-02-17T06:54:30.163Z,-2.30
2019-02-17T06:57:03.124Z,-2.20
2019-02-17T06:59:34.443Z,-2.10
2019-02-17T07:02:05.769Z,-2.10
2019-02-17T07:04:41.737Z,-2.00
2019-02-17T07:07:13.321Z,-1.80
2019-02-17T07:09:45.362Z,-1.70
2019-02-17T07:12:16.900Z,-1.60
2019-02-17T07:14:48.441Z,-1.50
2019-02-17T07:17:25.499Z,-1.40
2019-02-17T07:19:58.954Z,-1.30
2019-02-17T07:22:30.711Z,-1.10
2019-02-17T07:25:05.297Z,-1.00
2019-02-17T07:27:36.937Z,-0.90
2019-02-17T07:30:08.194Z,-0.80
2019-02-17T07:32:39.538Z,-0.70
2019-02-17T07:35:10.823Z,-0.70
2019-02-17T07:37:42.129Z,-0.60
2019-02-17T07:40:13.422Z,-0.50
2019-02-17T07:42:44.767Z,-0.40
2019-02-17T07:45:16.038Z,-0.30
2019-02-17T07:47:47.359Z,-0.30
2019-02-17T07:50:18.628Z,-0.10
2019-02-17T07:52:50.071Z,0.00
2019-02-17T07:55:21.434Z,0.10
2019-02-17T07:57:52.853Z,0.30
2019-02-17T08:00:24.087Z,0.40
2019-02-17T08:02:55.484Z,0.50
2019-02-17T08:05:26.844Z,0.60
2019-02-17T08:08:01.022Z,0.80
2019-02-17T08:10:32.390Z,0.90
2019-02-17T08:13:03.810Z,1.00
2019-02-17T08:15:35.082Z,1.00
2019-02-17T08:18:06.506Z,1.10
2019-02-17T08:20:37.862Z,1.20
2019-02-17T08:23:09.173Z,1.30
2019-02-17T08:25:42.027Z,1.40
2019-02-17T08:28:13.450Z,1.60
2019-02-17T08:30:44.918Z,1.70
2019-02-17T08:36:06.638Z,1.90
2019-02-17T08:38:38.098Z,2.00
2019-02-17T08:41:09.411Z,2.10
2019-02-17T08:43:42.198Z,2.20
2019-02-17T08:46:26.397Z,2.30
2019-02-17T08:48:57.708Z,2.40
2019-02-17T08:51:28.991Z,2.90
2019-02-17T08:54:00.320Z,3.10
2019-02-17T08:56:31.566Z,3.20
2019-02-17T08:59:02.894Z,3.70
2019-02-17T09:01:34.270Z,4.10
2019-02-17T09:04:06.950Z,4.50
2019-02-17T09:06:38.286Z,4.80
2019-02-17T09:09:09.632Z,5.20
2019-02-17T09:11:41.061Z,5.50
2019-02-17T09:14:12.360Z,5.80
2019-02-17T09:16:43.652Z,5.80
2019-02-17T09:19:15.127Z,6.10
2019-02-17T09:21:46.382Z,6.20
2019-02-17T09:24:17.853Z,6.30
2019-02-17T09:26:49.086Z,6.50
2019-02-17T09:29:20.531Z,6.40
2019-02-17T09:31:51.892Z,6.70
2019-02-17T09:34:23.212Z,6.80
2019-02-17T09:36:54.573Z,6.90
2019-02-17T09:39:27.275Z,7.00
2019-02-17T09:41:58.596Z,7.10
2019-02-17T09:44:29.922Z,7.10
2019-02-17T09:47:01.281Z,7.20
2019-02-17T09:49:32.585Z,7.40
2019-02-17T09:52:03.850Z,7.50
2019-02-17T09:54:35.174Z,7.70
2019-02-17T09:57:13.922Z,7.80
2019-02-17T09:59:45.351Z,7.80
2019-02-17T10:02:25.996Z,7.80
2019-02-17T10:04:49.787Z,7.90
2019-02-17T10:07:22.654Z,8.00
2019-02-17T10:09:54.099Z,8.10
2019-02-17T10:12:25.443Z,8.20
2019-02-17T10:14:58.103Z,8.20
2019-02-17T10:17:29.402Z,8.50
2019-02-17T10:20:00.769Z,8.60
2019-02-17T10:22:32.050Z,8.70
2019-02-17T10:25:03.519Z,8.70
2019-02-17T10:27:34.811Z,8.80
2019-02-17T10:30:10.540Z,8.90
2019-02-17T10:32:44.370Z,9.10
2019-02-17T10:35:15.796Z,9.20
2019-02-17T10:37:47.219Z,9.30
2019-02-17T10:40:20.175Z,9.50
2019-02-17T10:42:52.253Z,9.50
2019-02-17T10:45:23.547Z,9.50
2019-02-17T10:47:57.301Z,9.60
2019-02-17T10:50:28.851Z,9.60
2019-02-17T10:53:00.830Z,9.60
2019-02-17T10:55:33.111Z,9.70
2019-02-17T10:58:05.353Z,9.80
2019-02-17T11:00:36.777Z,10.00
2019-02-17T11:03:08.549Z,10.10
2019-02-17T11:05:41.274Z,10.20
2019-02-17T11:08:14.376Z,10.20
2019-02-17T11:10:48.157Z,10.30
2019-02-17T11:13:19.672Z,10.40
2019-02-17T11:15:51.506Z,10.50
2019-02-17T11:18:24.192Z,10.50
2019-02-17T11:20:55.651Z,10.60
2019-02-17T11:23:27.804Z,10.60
2019-02-17T11:26:00.585Z,10.80
2019-02-17T11:28:32.265Z,10.90
2019-02-17T11:31:03.536Z,11.00
2019-02-17T11:33:36.179Z,11.00
2019-02-17T11:36:08.915Z,11.00
2019-02-17T11:38:40.191Z,10.90
2019-02-17T11:41:12.649Z,11.00
2019-02-17T11:43:44.179Z,11.00
2019-02-17T11:46:15.612Z,11.00
2019-02-17T11:48:47.024Z,11.10
2019-02-17T11:51:18.938Z,11.20
2019-02-17T11:53:53.650Z,11.20
2019-02-17T11:56:26.292Z,11.30
2019-02-17T11:58:57.701Z,11.20
2019-02-17T12:01:29.947Z,11.30
2019-02-17T12:04:03.003Z,11.30
2019-02-17T12:06:36.184Z,11.50
2019-02-17T12:09:08.803Z,11.60
2019-02-17T12:11:43.065Z,11.70
2019-02-17T12:14:18.057Z,11.70
2019-02-17T12:16:49.479Z,11.80
2019-02-17T12:19:20.849Z,11.80
2019-02-17T12:21:55.317Z,11.80
2019-02-17T12:24:28.405Z,11.90
2019-02-17T12:27:05.371Z,12.00
2019-02-17T12:29:42.298Z,12.10
2019-02-17T12:32:14.014Z,11.90
2019-02-17T12:34:45.354Z,12.00
2019-02-17T12:37:16.602Z,11.90
2019-02-17T12:39:51.803Z,12.00
2019-02-17T12:42:23.106Z,12.00
2019-02-17T12:44:56.970Z,12.10
2019-02-17T12:47:27.441Z,12.10
2019-02-17T12:49:58.791Z,12.00
2019-02-17T12:52:30.101Z,12.10
2019-02-17T12:55:01.373Z,12.20
2019-02-17T12:57:32.655Z,12.10
2019-02-17T13:00:06.109Z,12.00
2019-02-17T13:02:37.387Z,12.20
2019-02-17T13:05:09.636Z,12.10
2019-02-17T13:07:42.737Z,12.20
2019-02-17T13:10:15.712Z,12.20
2019-02-17T13:12:47.000Z,12.20
2019-02-17T13:15:18.256Z,12.10
2019-02-17T13:17:49.513Z,12.10
2019-02-17T13:20:20.736Z,12.10
2019-02-17T13:22:51.894Z,12.20
2019-02-17T13:25:24.512Z,12.10
2019-02-17T13:27:57.103Z,12.20
2019-02-17T13:30:28.247Z,12.10
2019-02-17T13:32:59.857Z,12.20
2019-02-17T13:35:31.139Z,12.10
2019-02-17T13:38:04.010Z,12.10
2019-02-17T13:40:35.451Z,12.10
2019-02-17T13:43:06.821Z,12.20
2019-02-17T13:45:38.012Z,12.20
2019-02-17T13:48:09.361Z,12.10
2019-02-17T13:50:41.214Z,12.30
2019-02-17T13:53:14.260Z,12.20
2019-02-17T13:55:46.533Z,12.20
2019-02-17T13:58:20.119Z,12.10
2019-02-17T14:00:53.514Z,12.10
2019-02-17T14:03:27.835Z,12.10
2019-02-17T14:06:01.381Z,12.10
2019-02-17T14:08:33.693Z,12.00
2019-02-17T14:11:04.951Z,12.00
2019-02-17T14:13:36.231Z,11.90
2019-02-17T14:16:07.612Z,12.00
2019-02-17T14:18:40.151Z,11.90
2019-02-17T14:21:13.940Z,11.90
2019-02-17T14:23:45.350Z,11.90
2019-02-17T14:26:16.520Z,11.90
2019-02-17T14:28:50.182Z,11.90
2019-02-17T14:31:22.310Z,11.90
2019-02-17T14:33:58.556Z,11.80
2019-02-17T14:36:29.321Z,11.80
2019-02-17T14:39:01.154Z,11.70
2019-02-17T14:41:34.411Z,11.70
2019-02-17T14:44:07.006Z,11.60
2019-02-17T14:46:39.723Z,11.50
2019-02-17T14:49:11.262Z,11.40
2019-02-17T14:51:42.586Z,11.40
2019-02-17T14:54:13.932Z,11.30
2019-02-17T14:56:45.611Z,11.20
2019-02-17T14:59:17.366Z,11.10
2019-02-17T15:01:49.351Z,11.00
2019-02-17T15:04:22.924Z,11.00
2019-02-17T15:06:55.481Z,10.90
2019-02-17T15:09:28.165Z,10.80
2019-02-17T15:11:59.967Z,10.80
2019-02-17T15:14:32.206Z,10.70
2019-02-17T15:17:05.136Z,10.60
2019-02-17T15:19:38.553Z,10.50
2019-02-17T15:22:12.203Z,10.40
2019-02-17T15:24:46.403Z,10.20
2019-02-17T15:27:21.205Z,10.00
2019-02-17T15:29:55.354Z,9.80
2019-02-17T15:32:30.130Z,9.60
2019-02-17T15:35:03.323Z,9.30
2019-02-17T15:37:36.371Z,9.20
2019-02-17T15:40:13.464Z,9.00
2019-02-17T15:42:48.161Z,8.80
2019-02-17T15:45:21.458Z,8.60
2019-02-17T15:47:53.080Z,8.40
2019-02-17T15:50:24.991Z,8.30
2019-02-17T15:52:57.351Z,8.20
2019-02-17T15:55:29.560Z,8.00
2019-02-17T15:58:01.294Z,7.90
2019-02-17T16:00:34.060Z,7.70
2019-02-17T16:03:05.538Z,7.60
2019-02-17T16:05:36.964Z,7.40
2019-02-17T16:08:08.572Z,7.30
2019-02-17T16:10:40.301Z,7.10
2019-02-17T16:13:11.949Z,7.00
2019-02-17T16:15:43.332Z,6.90
2019-02-17T16:18:14.900Z,6.80
2019-02-17T16:20:47.020Z,6.80
2019-02-17T16:23:18.901Z,6.60
2019-02-17T16:25:50.700Z,6.50
2019-02-17T16:28:22.306Z,6.40
2019-02-17T16:30:53.683Z,6.30
2019-02-17T16:33:25.065Z,6.20
2019-02-17T16:35:56.453Z,6.10
2019-02-17T16:38:27.820Z,6.00
2019-02-17T16:41:00.877Z,5.90
2019-02-17T16:43:32.959Z,5.80
2019-02-17T16:46:05.663Z,5.60
2019-02-17T16:48:38.282Z,5.40
2019-02-17T16:51:10.186Z,5.30
2019-02-17T16:53:42.921Z,5.20
2019-02-17T16:56:16.534Z,5.10
2019-02-17T16:58:48.910Z,5.10
2019-02-17T17:01:22.527Z,4.90
2019-02-17T17:03:55.291Z,4.90
2019-02-17T17:06:28.360Z,4.90
2019-02-17T17:09:00.179Z,4.80
2019-02-17T17:11:32.533Z,4.70
2019-02-17T17:14:08.980Z,4.60
2019-02-17T17:16:38.825Z,4.50
2019-02-17T17:19:10.178Z,4.40
2019-02-17T17:21:41.802Z,4.30
2019-02-17T17:24:13.906Z,4.30
2019-02-17T17:26:46.394Z,4.20
2019-02-17T17:29:19.612Z,4.00
2019-02-17T17:31:52.171Z,4.00
2019-02-17T17:34:24.652Z,3.90
2019-02-17T17:36:57.658Z,3.90
2019-02-17T17:39:30.752Z,3.60
2019-02-17T17:42:02.929Z,3.60
2019-02-17T17:44:34.871Z,3.60
2019-02-17T17:47:06.312Z,3.60
2019-02-17T17:49:37.710Z,3.60
2019-02-17T17:52:10.479Z,3.60
2019-02-17T17:54:42.680Z,3.60
2019-02-17T17:57:15.321Z,3.20
2019-02-17T17:59:47.362Z,3.30
2019-02-17T18:02:18.840Z,3.30
2019-02-17T18:04:50.560Z,3.20
2019-02-17T18:07:23.003Z,3.20
2019-02-17T18:09:55.026Z,3.10
2019-02-17T18:12:27.039Z,3.10
2019-02-17T18:15:00.041Z,3.00
2019-02-17T18:17:32.548Z,3.00
2019-02-17T18:20:06.751Z,3.00
2019-02-17T18:22:38.026Z,2.90
2019-02-17T18:25:14.586Z,2.90
2019-02-17T18:27:46.983Z,2.80
2019-02-17T18:30:19.804Z,2.80
2019-02-17T18:32:52.351Z,2.60
2019-02-17T18:35:25.188Z,2.60
2019-02-17T18:37:59.159Z,2.60
2019-02-17T18:40:32.193Z,2.60
2019-02-17T18:43:04.560Z,2.30
2019-02-17T18:45:36.833Z,2.30
2019-02-17T18:48:11.381Z,2.30
2019-02-17T18:50:46.153Z,2.30
2019-02-17T18:53:20.034Z,2.20
2019-02-17T18:55:51.958Z,2.20
2019-02-17T18:58:25.161Z,2.20
2019-02-17T19:00:57.857Z,2.10
2019-02-17T19:03:29.303Z,2.10
2019-02-17T19:06:05.188Z,2.10
2019-02-17T19:08:38.872Z,2.10
2019-02-17T19:11:10.281Z,2.10
2019-02-17T19:13:41.548Z,2.00
2019-02-17T19:16:12.786Z,2.00
2019-02-17T19:18:44.055Z,1.80
2019-02-17T19:21:15.285Z,1.90
2019-02-17T19:23:46.572Z,1.90
2019-02-17T19:26:17.912Z,1.90
2019-02-17T19:28:49.288Z,1.80
2019-02-17T19:31:20.517Z,1.80
2019-02-17T19:33:53.128Z,1.80
2019-02-17T19:36:24.497Z,1.70
2019-02-17T19:38:56.798Z,1.70
2019-02-17T19:41:28.027Z,1.70
2019-02-17T19:43:59.233Z,1.70
2019-02-17T19:46:30.429Z,1.70
2019-02-17T19:49:01.790Z,1.60
2019-02-17T19:51:33.138Z,1.60
2019-02-17T19:54:04.453Z,1.60
2019-02-17T19:56:35.594Z,1.50
2019-02-17T19:59:06.974Z,1.50
2019-02-17T20:01:38.251Z,1.50
2019-02-17T20:04:11.102Z,1.40
2019-02-17T20:06:42.432Z,1.40
2019-02-17T20:09:15.697Z,1.30
2019-02-17T20:11:47.004Z,1.30
2019-02-17T20:14:18.744Z,1.30
2019-02-17T20:16:50.788Z,1.30
2019-02-17T20:19:22.113Z,1.30
2019-02-17T20:21:55.032Z,1.20
2019-02-17T20:24:27.090Z,1.10
2019-02-17T20:27:00.801Z,1.10
2019-02-17T20:29:31.976Z,1.10
2019-02-17T20:32:03.167Z,1.10
2019-02-17T20:34:34.443Z,1.10
2019-02-17T20:37:05.831Z,1.10
2019-02-17T20:39:37.147Z,1.00
2019-02-17T20:42:08.383Z,1.00
2019-02-17T20:44:39.580Z,1.00
2019-02-17T20:47:10.799Z,1.00
2019-02-17T20:49:42.207Z,1.00
2019-02-17T20:52:13.679Z,1.00
2019-02-17T20:54:46.224Z,1.00
2019-02-17T20:57:17.698Z,0.90
2019-02-17T20:59:48.891Z,0.80
2019-02-17T21:02:20.063Z,0.90
2019-02-17T21:04:51.355Z,0.90
2019-02-17T21:07:22.625Z,0.80
2019-02-17T21:09:54.045Z,0.90
2019-02-17T21:12:25.238Z,0.80
2019-02-17T21:14:56.427Z,0.70
2019-02-17T21:17:27.786Z,0.70
2019-02-17T21:19:59.080Z,0.70
2019-02-17T21:22:31.792Z,0.70
2019-02-17T21:25:03.210Z,0.70
2019-02-17T21:27:34.540Z,0.70
2019-02-17T21:30:18.748Z,0.70
2019-02-17T21:32:50.111Z,0.70
2019-02-17T21:35:21.438Z,0.70
2019-02-17T21:37:52.782Z,0.80
2019-02-17T21:40:24.198Z,0.70
2019-02-17T21:42:55.462Z,0.60
2019-02-17T21:45:26.863Z,0.50
2019-02-17T21:47:58.210Z,0.50
2019-02-17T21:50:29.783Z,0.50
2019-02-17T21:53:01.002Z,0.50
2019-02-17T21:55:32.323Z,0.50
2019-02-17T21:58:03.652Z,0.60
2019-02-17T22:00:34.899Z,0.50
2019-02-17T22:03:09.407Z,0.40
2019-02-17T22:05:41.852Z,0.40
2019-02-17T22:08:14.434Z,0.30
2019-02-17T22:10:45.873Z,0.30
2019-02-17T22:13:17.144Z,0.30
2019-02-17T22:15:48.450Z,0.30
2019-02-17T22:18:21.310Z,0.30
2019-02-17T22:20:57.879Z,0.30
2019-02-17T22:23:29.140Z,0.30
2019-02-17T22:26:01.521Z,0.30
2019-02-17T22:28:33.012Z,0.40
2019-02-17T22:31:26.861Z,0.30
2019-02-17T22:33:58.202Z,0.20
2019-02-17T22:36:43.500Z,0.10
2019-02-17T22:39:09.419Z,0.10
2019-02-17T22:41:40.930Z,0.00
2019-02-17T22:44:12.587Z,0.10
2019-02-17T22:46:43.918Z,0.20
2019-02-17T22:49:15.207Z,0.20
2019-02-17T22:51:46.976Z,0.10
2019-02-17T22:54:18.219Z,0.20
2019-02-17T22:56:49.620Z,0.20
2019-02-17T22:59:20.859Z,0.20
2019-02-17T23:01:56.670Z,0.20
2019-02-17T23:04:28.938Z,0.10
2019-02-17T23:07:00.238Z,0.20
2019-02-17T23:09:31.599Z,0.20
2019-02-17T23:12:03.161Z,0.20
2019-02-17T23:14:35.508Z,0.10
2019-02-17T23:17:06.926Z,-0.10
2019-02-17T23:19:38.312Z,-0.10
2019-02-17T23:22:09.718Z,-0.10
2019-02-17T23:24:41.102Z,-0.10
2019-02-17T23:27:13.513Z,0.00
2019-02-17T23:29:44.817Z,-0.10
2019-02-17T23:32:18.642Z,0.00
2019-02-17T23:34:49.906Z,0.00
2019-02-17T23:37:21.212Z,0.10
2019-02-17T23:39:52.571Z,0.00
2019-02-17T23:42:23.969Z,-0.10
2019-02-17T23:44:55.222Z,0.00
2019-02-17T23:47:26.669Z,0.00
2019-02-17T23:49:57.955Z,-0.20
2019-02-17T23:52:29.401Z,-0.30
2019-02-17T23:55:00.811Z,-0.20
2019-02-17T23:57:32.777Z,-0.20
